createdAt,value
2019-05-18T00:01:41.545Z,59.53
2019-05-18T00:04:10.986Z,62.95
2019-05-18T00:06:40.399Z,61.92
2019-05-18T00:09:09.749Z,61.63
2019-05-18T00:11:39.139Z,69.32
2019-05-18T00:14:08.526Z,66.45
2019-05-18T00:16:37.919Z,63.78
2019-05-18T00:19:08.925Z,70.30
2019-05-18T00:21:38.294Z,68.92
2019-05-18T00:24:07.683Z,79.35
2019-05-18T00:26:37.172Z,66.37
2019-05-18T00:29:06.565Z,75.52
2019-05-18T00:31:36.032Z,82.53
2019-05-18T00:34:05.461Z,73.70
2019-05-18T00:36:34.922Z,66.72
2019-05-18T00:39:05.826Z,71.75
2019-05-18T00:41:35.215Z,72.17
2019-05-18T00:44:04.624Z,67.37
2019-05-18T00:46:34.081Z,70.30
2019-05-18T00:49:03.478Z,72.10
2019-05-18T00:51:32.867Z,66.55
2019-05-18T00:54:02.236Z,72.50
2019-05-18T00:56:31.622Z,80.25
2019-05-18T00:59:01.006Z,73.40
2019-05-18T01:01:30.373Z,75.12
2019-05-18T01:03:59.772Z,66.55
2019-05-18T01:07:05.755Z,69.30
2019-05-18T01:09:29.062Z,72.77
2019-05-18T01:11:58.413Z,71.33
2019-05-18T01:14:27.778Z,71.53
2019-05-18T01:16:57.195Z,79.03
2019-05-18T01:19:26.575Z,58.35
2019-05-18T01:21:55.934Z,80.12
2019-05-18T01:24:25.336Z,78.25
2019-05-18T01:26:54.713Z,76.28
2019-05-18T01:29:24.112Z,75.37
2019-05-18T01:32:12.919Z,72.32
2019-05-18T01:34:42.324Z,73.28
2019-05-18T01:37:11.759Z,77.03
2019-05-18T01:39:41.155Z,77.58
2019-05-18T01:42:10.546Z,74.22
2019-05-18T01:44:39.947Z,71.82
2019-05-18T01:47:09.339Z,77.60
2019-05-18T01:49:38.717Z,69.95
2019-05-18T01:52:08.101Z,79.20
2019-05-18T01:54:37.482Z,73.12
2019-05-18T01:57:06.897Z,72.05
2019-05-18T01:59:36.269Z,76.60
2019-05-18T02:02:05.641Z,69.90
2019-05-18T02:04:35.026Z,73.05
2019-05-18T02:07:04.434Z,68.33
2019-05-18T02:09:33.915Z,72.80
2019-05-18T02:12:03.303Z,72.42
2019-05-18T02:14:32.690Z,83.58
2019-05-18T02:17:02.091Z,78.50
2019-05-18T02:19:31.456Z,69.15
2019-05-18T02:22:00.847Z,72.03
2019-05-18T02:24:30.235Z,63.83
2019-05-18T02:27:00.587Z,72.78
2019-05-18T02:29:29.983Z,63.05
2019-05-18T02:31:59.376Z,68.97
2019-05-18T02:34:28.808Z,59.80
2019-05-18T02:36:58.198Z,70.83
2019-05-18T02:39:27.588Z,67.05
2019-05-18T02:41:56.952Z,72.05
2019-05-18T02:44:26.350Z,58.90
2019-05-18T02:46:55.733Z,67.58
2019-05-18T02:49:25.125Z,72.80
2019-05-18T02:51:54.578Z,69.47
2019-05-18T02:54:23.942Z,69.58
2019-05-18T02:56:53.345Z,72.00
2019-05-18T02:59:22.712Z,64.15
2019-05-18T03:01:52.079Z,73.22
2019-05-18T03:04:21.470Z,80.67
2019-05-18T03:06:50.893Z,76.10
2019-05-18T03:09:20.257Z,86.63
2019-05-18T03:11:49.649Z,79.40
2019-05-18T03:14:19.027Z,73.85
2019-05-18T03:16:48.398Z,72.53
2019-05-18T03:19:37.213Z,71.50
2019-05-18T03:22:06.598Z,68.75
2019-05-18T03:24:36.002Z,70.08
2019-05-18T03:27:05.397Z,65.95
2019-05-18T03:29:34.782Z,64.72
2019-05-18T03:32:04.200Z,69.05
2019-05-18T03:34:33.634Z,55.67
2019-05-18T03:37:03.021Z,65.67
2019-05-18T03:39:32.417Z,70.20
2019-05-18T03:42:01.898Z,70.47
2019-05-18T03:47:00.946Z,72.35
2019-05-18T03:49:30.349Z,77.15
2019-05-18T03:51:59.705Z,64.07
2019-05-18T03:54:29.115Z,62.70
2019-05-18T03:56:58.516Z,73.35
2019-05-18T03:59:27.874Z,65.95
2019-05-18T04:01:57.275Z,73.12
2019-05-18T04:04:26.634Z,67.03
2019-05-18T04:06:56.021Z,65.08
2019-05-18T04:09:25.433Z,73.35
2019-05-18T04:11:54.803Z,67.37
2019-05-18T04:14:24.179Z,62.50
2019-05-18T04:16:55.209Z,64.03
2019-05-18T04:19:24.638Z,67.65
2019-05-18T04:21:54.271Z,69.22
2019-05-18T04:24:23.625Z,65.17
2019-05-18T04:26:53.031Z,64.97
2019-05-18T04:29:22.425Z,71.02
2019-05-18T04:34:21.566Z,75.92
2019-05-18T04:36:50.928Z,74.67
2019-05-18T04:39:20.322Z,82.62
2019-05-18T04:41:49.723Z,85.03
2019-05-18T04:44:19.095Z,76.92
2019-05-18T04:46:48.491Z,83.60
2019-05-18T04:49:17.849Z,75.25
2019-05-18T04:51:47.248Z,78.02
2019-05-18T04:54:16.624Z,76.55
2019-05-18T04:56:45.992Z,83.42
2019-05-18T04:59:15.375Z,93.80
2019-05-18T05:01:44.791Z,89.32
2019-05-18T05:06:44.918Z,86.85
2019-05-18T05:09:14.316Z,90.90
2019-05-18T05:11:45.305Z,93.17
2019-05-18T05:14:14.692Z,82.72
2019-05-18T05:16:44.085Z,86.90
2019-05-18T05:19:26.288Z,79.22
2019-05-18T05:21:55.676Z,73.75
2019-05-18T05:24:25.072Z,76.62
2019-05-18T05:26:54.531Z,75.03
2019-05-18T05:29:23.894Z,72.45
2019-05-18T05:32:05.479Z,72.72
2019-05-18T05:34:34.869Z,73.45
2019-05-18T05:37:04.277Z,67.35
2019-05-18T05:39:33.665Z,70.92
2019-05-18T05:42:03.053Z,65.00
2019-05-18T05:44:32.453Z,63.92
2019-05-18T05:47:01.848Z,56.70
2019-05-18T05:49:31.213Z,64.97
2019-05-18T05:52:00.608Z,65.05
2019-05-18T05:54:30.002Z,61.40
2019-05-18T05:56:59.387Z,60.10
2019-05-18T05:59:28.754Z,60.48
2019-05-18T06:01:58.156Z,52.50
2019-05-18T06:04:27.556Z,59.23
2019-05-18T06:06:58.038Z,59.93
2019-05-18T06:09:27.858Z,56.70
2019-05-18T06:11:57.243Z,49.25
2019-05-18T06:16:56.364Z,46.15
2019-05-18T06:19:25.880Z,46.02
2019-05-18T06:21:55.261Z,54.10
2019-05-18T06:24:24.729Z,37.00
2019-05-18T06:26:55.078Z,36.77
2019-05-18T06:29:24.510Z,34.27
2019-05-18T06:31:53.907Z,31.80
2019-05-18T06:34:23.361Z,31.05
2019-05-18T06:36:55.831Z,35.52
2019-05-18T06:39:23.786Z,32.42
2019-05-18T06:41:53.181Z,28.50
2019-05-18T06:44:22.647Z,28.70
2019-05-18T06:46:52.038Z,32.67
2019-05-18T06:49:21.433Z,30.32
2019-05-18T06:51:50.821Z,29.23
2019-05-18T06:54:20.232Z,26.77
2019-05-18T06:56:49.597Z,27.22
2019-05-18T06:59:18.985Z,28.07
2019-05-18T07:01:48.350Z,28.77
2019-05-18T07:04:17.745Z,25.95
2019-05-18T07:06:47.127Z,22.52
2019-05-18T07:09:16.493Z,22.50
2019-05-18T07:11:45.952Z,19.50
2019-05-18T07:14:25.197Z,17.45
2019-05-18T07:16:46.341Z,15.68
2019-05-18T07:19:15.752Z,17.52
2019-05-18T07:21:45.138Z,19.05
2019-05-18T07:24:14.507Z,17.55
2019-05-18T07:26:43.898Z,16.05
2019-05-18T07:29:13.282Z,18.23
2019-05-18T07:31:42.650Z,18.45
2019-05-18T07:34:12.044Z,18.62
2019-05-18T07:36:41.466Z,20.23
2019-05-18T07:39:10.853Z,17.45
2019-05-18T07:41:46.895Z,18.30
2019-05-18T07:44:12.344Z,20.50
2019-05-18T07:46:41.706Z,18.42
2019-05-18T07:49:11.103Z,17.87
2019-05-18T07:52:00.283Z,20.50
2019-05-18T07:54:32.135Z,19.07
2019-05-18T07:57:03.297Z,19.45
2019-05-18T07:59:32.658Z,16.27
2019-05-18T08:02:02.129Z,16.93
2019-05-18T08:04:31.562Z,19.62
2019-05-18T08:07:00.962Z,15.98
2019-05-18T08:09:30.359Z,17.27
2019-05-18T08:11:59.726Z,12.15
2019-05-18T08:14:29.355Z,13.70
2019-05-18T08:16:58.913Z,16.02
2019-05-18T08:19:28.371Z,16.00
2019-05-18T08:21:57.746Z,11.97
2019-05-18T08:24:27.266Z,12.95
2019-05-18T08:26:56.695Z,12.90
2019-05-18T08:29:26.093Z,12.85
2019-05-18T08:31:55.459Z,12.90
2019-05-18T08:34:24.861Z,10.68
2019-05-18T08:36:54.655Z,14.10
2019-05-18T08:39:25.135Z,15.50
2019-05-18T08:41:54.632Z,13.13
2019-05-18T08:44:23.985Z,12.27
2019-05-18T08:46:53.370Z,12.40
2019-05-18T08:49:22.767Z,13.38
2019-05-18T08:51:52.174Z,13.05
2019-05-18T08:54:33.852Z,15.70
2019-05-18T08:57:03.243Z,13.25
2019-05-18T08:59:32.946Z,14.07
2019-05-18T09:02:02.622Z,15.30
2019-05-18T09:04:36.882Z,16.57
2019-05-18T09:07:17.677Z,16.23
2019-05-18T09:09:47.128Z,12.53
2019-05-18T09:12:16.477Z,11.20
2019-05-18T09:14:46.512Z,10.88
2019-05-18T09:17:15.996Z,14.05
2019-05-18T09:19:57.522Z,15.05
2019-05-18T09:22:26.911Z,14.80
2019-05-18T09:24:56.435Z,14.25
2019-05-18T09:27:25.826Z,21.73
2019-05-18T09:29:55.210Z,12.13
2019-05-18T09:32:24.642Z,12.25
2019-05-18T09:34:55.171Z,10.82
2019-05-18T09:37:24.536Z,12.45
2019-05-18T09:40:13.404Z,12.47
2019-05-18T09:42:42.743Z,13.45
2019-05-18T09:45:12.112Z,14.73
2019-05-18T09:47:41.550Z,13.30
2019-05-18T09:50:12.594Z,12.35
2019-05-18T09:52:45.367Z,13.35
2019-05-18T09:55:13.022Z,25.25
2019-05-18T09:57:42.384Z,21.23
2019-05-18T10:00:13.775Z,11.43
2019-05-18T10:02:43.309Z,10.03
2019-05-18T10:05:12.733Z,12.35
2019-05-18T10:07:42.183Z,14.60
2019-05-18T10:10:24.499Z,11.57
2019-05-18T10:12:53.952Z,12.00
2019-05-18T10:15:23.443Z,10.77
2019-05-18T10:17:52.921Z,12.53
2019-05-18T10:20:22.345Z,15.33
2019-05-18T10:23:04.091Z,14.10
2019-05-18T10:25:22.809Z,18.10
2019-05-18T10:27:52.228Z,12.60
2019-05-18T10:30:21.593Z,14.20
2019-05-18T10:35:20.644Z,18.23
2019-05-18T10:38:08.041Z,15.63
2019-05-18T10:40:52.187Z,12.03
2019-05-18T10:46:46.954Z,16.77
2019-05-18T10:48:53.415Z,13.75
2019-05-18T10:54:45.148Z,16.20
2019-05-18T11:03:13.859Z,11.68
2019-05-18T11:05:45.066Z,12.05
2019-05-18T11:08:19.352Z,11.78
2019-05-18T11:10:48.750Z,14.43
2019-05-18T11:13:18.160Z,39.15
2019-05-18T11:15:47.542Z,14.50
2019-05-18T11:18:16.913Z,13.57
2019-05-18T11:20:46.371Z,10.20
2019-05-18T11:23:15.746Z,11.43
2019-05-18T11:25:45.152Z,11.40
2019-05-18T11:28:14.536Z,12.03
2019-05-18T11:30:43.900Z,12.68
2019-05-18T11:33:13.283Z,12.45
2019-05-18T11:35:42.680Z,9.27
2019-05-18T11:38:12.052Z,8.93
2019-05-18T11:40:41.410Z,8.80
2019-05-18T11:43:10.776Z,10.10
2019-05-18T11:45:40.166Z,10.27
2019-05-18T11:48:09.655Z,9.50
2019-05-18T11:50:39.006Z,10.73
2019-05-18T11:53:08.408Z,12.18
2019-05-18T11:55:37.800Z,11.33
2019-05-18T11:58:07.158Z,11.53
2019-05-18T12:00:36.553Z,10.83
2019-05-18T12:03:06.011Z,10.98
2019-05-18T12:05:35.398Z,11.07
2019-05-18T12:08:04.795Z,12.83
2019-05-18T12:10:34.146Z,13.00
2019-05-18T12:13:03.532Z,12.50
2019-05-18T12:15:32.905Z,11.90
2019-05-18T12:18:02.289Z,9.90
2019-05-18T12:20:31.687Z,11.97
2019-05-18T12:23:01.120Z,12.50
2019-05-18T12:25:30.503Z,13.90
2019-05-18T12:27:59.882Z,10.53
2019-05-18T12:30:29.551Z,10.00
2019-05-18T12:32:58.938Z,11.12
2019-05-18T12:35:29.937Z,10.18
2019-05-18T12:37:59.340Z,11.85
2019-05-18T12:40:28.736Z,10.20
2019-05-18T12:42:58.137Z,10.00
2019-05-18T12:45:27.522Z,11.73
2019-05-18T12:47:57.978Z,12.25
2019-05-18T12:50:27.342Z,11.40
2019-05-18T12:52:56.794Z,8.93
2019-05-18T12:55:26.175Z,9.30
2019-05-18T12:57:55.534Z,11.57
2019-05-18T13:00:24.930Z,11.73
2019-05-18T13:02:54.306Z,10.13
2019-05-18T13:05:23.671Z,10.10
2019-05-18T13:07:53.052Z,11.27
2019-05-18T13:10:23.511Z,10.63
2019-05-18T13:12:52.898Z,10.55
2019-05-18T13:15:22.279Z,11.43
2019-05-18T13:17:51.662Z,11.17
2019-05-18T13:20:21.051Z,11.97
2019-05-18T13:22:50.417Z,13.20
2019-05-18T13:25:19.805Z,11.93
2019-05-18T13:27:49.202Z,10.17
2019-05-18T13:30:19.834Z,9.70
2019-05-18T13:32:49.623Z,10.38
2019-05-18T13:35:19.049Z,12.27
2019-05-18T13:37:48.503Z,15.53
2019-05-18T13:40:17.893Z,11.03
2019-05-18T13:42:47.250Z,11.47
2019-05-18T13:45:16.774Z,14.67
2019-05-18T13:47:46.159Z,10.35
2019-05-18T13:50:15.542Z,10.47
2019-05-18T13:52:44.941Z,14.03
2019-05-18T13:55:15.375Z,11.78
2019-05-18T13:57:44.749Z,9.57
2019-05-18T14:00:14.142Z,10.47
2019-05-18T14:03:02.962Z,10.23
2019-05-18T14:05:45.027Z,13.05
2019-05-18T14:08:15.803Z,11.63
2019-05-18T14:10:45.605Z,10.65
2019-05-18T14:13:14.991Z,12.30
2019-05-18T14:15:44.646Z,14.13
2019-05-18T14:18:14.027Z,14.13
2019-05-18T14:20:43.579Z,10.78
2019-05-18T14:23:14.039Z,12.03
2019-05-18T14:25:46.065Z,11.47
2019-05-18T14:28:14.432Z,10.35
2019-05-18T14:30:43.808Z,13.00
2019-05-18T14:33:13.251Z,10.70
2019-05-18T14:35:42.643Z,12.03
2019-05-18T14:38:12.034Z,19.60
2019-05-18T14:40:41.418Z,12.73
2019-05-18T14:43:10.797Z,11.33
2019-05-18T14:45:40.172Z,18.97
2019-05-18T14:48:09.621Z,9.63
2019-05-18T14:50:39.005Z,10.80
2019-05-18T14:53:08.398Z,12.67
2019-05-18T14:55:37.754Z,10.83
2019-05-18T14:58:07.140Z,10.90
2019-05-18T15:00:36.523Z,15.07
2019-05-18T15:03:05.913Z,9.97
2019-05-18T15:05:36.916Z,11.43
2019-05-18T15:08:06.280Z,11.40
2019-05-18T15:10:35.675Z,42.35
2019-05-18T15:13:05.069Z,12.37
2019-05-18T15:15:34.634Z,13.10
2019-05-18T15:18:04.071Z,8.85
2019-05-18T15:20:33.624Z,8.65
2019-05-18T15:23:03.082Z,9.43
2019-05-18T15:25:32.505Z,9.60
2019-05-18T15:28:01.886Z,10.60
2019-05-18T15:30:31.327Z,10.47
2019-05-18T15:33:00.706Z,9.17
2019-05-18T15:35:30.070Z,10.17
2019-05-18T15:37:59.545Z,11.08
2019-05-18T15:40:28.932Z,9.13
2019-05-18T15:42:58.363Z,12.40
2019-05-18T15:45:27.739Z,9.53
2019-05-18T15:47:57.127Z,12.98
2019-05-18T15:50:26.503Z,11.37
2019-05-18T15:52:55.884Z,11.00
2019-05-18T15:55:25.258Z,14.87
2019-05-18T15:57:54.655Z,10.87
2019-05-18T16:00:24.041Z,9.73
2019-05-18T16:02:53.463Z,8.23
2019-05-18T16:05:22.841Z,10.77
2019-05-18T16:07:52.308Z,10.77
2019-05-18T16:10:21.679Z,9.73
2019-05-18T16:12:51.060Z,10.73
2019-05-18T16:15:20.418Z,9.35
2019-05-18T16:17:49.877Z,11.77
2019-05-18T16:20:19.239Z,20.17
2019-05-18T16:22:48.619Z,11.67
2019-05-18T16:25:18.009Z,12.53
2019-05-18T16:27:47.367Z,8.43
2019-05-18T16:30:16.754Z,10.25
2019-05-18T16:32:46.113Z,28.90
2019-05-18T16:35:15.637Z,14.37
2019-05-18T16:37:45.117Z,12.10
2019-05-18T16:40:14.555Z,15.25
2019-05-18T16:42:46.549Z,120.10
2019-05-18T16:45:15.994Z,22.93
2019-05-18T16:50:14.080Z,14.23
2019-05-18T16:52:43.437Z,69.00
2019-05-18T16:55:12.958Z,37.10
2019-05-18T16:57:43.428Z,19.52
2019-05-18T17:00:16.519Z,13.48
2019-05-18T17:02:46.073Z,14.78
2019-05-18T17:05:15.618Z,16.95
2019-05-18T17:07:44.995Z,13.65
2019-05-18T17:10:14.781Z,13.90
2019-05-18T17:12:44.161Z,12.93
2019-05-18T17:15:13.540Z,15.67
2019-05-18T17:17:42.913Z,24.65
2019-05-18T17:20:13.387Z,20.97
2019-05-18T17:22:42.795Z,15.85
2019-05-18T17:25:12.163Z,21.75
2019-05-18T17:27:41.913Z,19.85
2019-05-18T17:30:11.434Z,14.13
2019-05-18T17:32:44.473Z,13.33
2019-05-18T17:35:14.290Z,13.28
2019-05-18T17:38:03.171Z,10.80
2019-05-18T17:40:32.719Z,11.57
2019-05-18T17:43:02.144Z,19.07
2019-05-18T17:45:31.664Z,16.33
2019-05-18T17:48:01.047Z,27.07
2019-05-18T17:50:30.475Z,19.47
2019-05-18T17:52:59.864Z,23.10
2019-05-18T17:55:29.297Z,31.87
2019-05-18T17:57:58.761Z,27.17
2019-05-18T18:00:28.228Z,34.23
2019-05-18T18:02:57.701Z,24.90
2019-05-18T18:05:27.164Z,33.77
2019-05-18T18:07:56.612Z,30.30
2019-05-18T18:10:25.983Z,32.13
2019-05-18T18:12:56.615Z,35.52
2019-05-18T18:15:26.163Z,35.27
2019-05-18T18:17:55.590Z,34.65
2019-05-18T18:20:25.850Z,27.02
2019-05-18T18:22:55.238Z,37.65
2019-05-18T18:25:24.611Z,37.95
2019-05-18T18:27:54.001Z,45.60
2019-05-18T18:30:23.596Z,38.87
2019-05-18T18:32:53.036Z,38.80
2019-05-18T18:35:22.495Z,32.67
2019-05-18T18:37:51.962Z,24.63
2019-05-18T18:40:21.333Z,26.20
2019-05-18T18:42:50.841Z,20.90
2019-05-18T18:45:20.249Z,24.30
2019-05-18T18:47:49.684Z,64.23
2019-05-18T18:50:19.075Z,151.87
2019-05-18T18:52:48.483Z,160.35
2019-05-18T18:55:17.996Z,83.33
2019-05-18T18:57:47.384Z,53.23
2019-05-18T19:00:17.415Z,44.08
2019-05-18T19:02:48.483Z,85.17
2019-05-18T19:05:17.886Z,129.55
2019-05-18T19:07:47.265Z,79.40
2019-05-18T19:10:18.255Z,29.65
2019-05-18T19:12:47.648Z,26.17
2019-05-18T19:15:20.602Z,24.30
2019-05-18T19:17:48.253Z,28.65
2019-05-18T19:20:17.642Z,28.27
2019-05-18T19:22:48.652Z,28.77
2019-05-18T19:25:18.047Z,36.53
2019-05-18T19:27:54.864Z,38.53
2019-05-18T19:30:19.384Z,71.62
2019-05-18T19:32:48.947Z,58.77
2019-05-18T19:35:18.577Z,54.77
2019-05-18T19:37:48.107Z,40.25
2019-05-18T19:40:17.490Z,38.83
2019-05-18T19:42:47.462Z,43.70
2019-05-18T19:45:17.038Z,70.05
2019-05-18T19:47:46.568Z,100.00
2019-05-18T19:50:28.007Z,72.73
2019-05-18T19:52:57.390Z,69.27
2019-05-18T19:55:26.865Z,56.60
2019-05-18T19:58:08.049Z,51.95
2019-05-18T20:00:27.327Z,48.38
2019-05-18T20:02:56.830Z,49.60
2019-05-18T20:05:27.115Z,45.17
2019-05-18T20:07:56.761Z,37.65
2019-05-18T20:10:26.316Z,34.93
2019-05-18T20:12:55.779Z,30.20
2019-05-18T20:15:25.169Z,32.88
2019-05-18T20:17:54.534Z,27.75
2019-05-18T20:20:23.925Z,24.95
2019-05-18T20:22:53.455Z,28.73
2019-05-18T20:25:22.823Z,30.57
2019-05-18T20:27:52.379Z,33.87
2019-05-18T20:30:21.846Z,35.95
2019-05-18T20:32:51.308Z,43.38
2019-05-18T20:35:20.818Z,33.05
2019-05-18T20:37:50.179Z,31.75
2019-05-18T20:40:19.638Z,32.98
2019-05-18T20:42:49.106Z,37.40
2019-05-18T20:45:18.498Z,39.38
2019-05-18T20:47:47.972Z,39.67
2019-05-18T20:50:17.394Z,39.88
2019-05-18T20:52:46.891Z,38.40
2019-05-18T20:55:16.491Z,52.25
2019-05-18T20:57:45.934Z,53.15
2019-05-18T21:00:15.496Z,57.23
2019-05-18T21:02:45.082Z,40.92
2019-05-18T21:05:14.593Z,43.70
2019-05-18T21:07:44.045Z,43.17
2019-05-18T21:10:13.500Z,49.05
2019-05-18T21:12:42.959Z,34.27
2019-05-18T21:15:12.349Z,30.40
2019-05-18T21:17:41.727Z,31.50
2019-05-18T21:20:11.111Z,36.40
2019-05-18T21:22:40.487Z,25.27
2019-05-18T21:25:09.871Z,27.48
2019-05-18T21:27:39.246Z,28.27
2019-05-18T21:30:08.640Z,30.20
2019-05-18T21:32:38.028Z,31.85
2019-05-18T21:35:07.486Z,30.88
2019-05-18T21:37:36.881Z,29.60
2019-05-18T21:40:06.271Z,35.40
2019-05-18T21:42:35.662Z,32.42
2019-05-18T21:45:06.313Z,31.52
2019-05-18T21:47:35.682Z,30.72
2019-05-18T21:50:06.879Z,28.87
2019-05-18T21:52:36.267Z,28.67
2019-05-18T21:55:06.625Z,30.37
2019-05-18T21:57:36.019Z,29.18
2019-05-18T22:00:06.142Z,31.80
2019-05-18T22:02:37.139Z,26.97
2019-05-18T22:05:06.516Z,27.13
2019-05-18T22:07:35.952Z,29.98
2019-05-18T22:10:08.599Z,26.62
2019-05-18T22:12:37.983Z,24.67
2019-05-18T22:15:07.719Z,26.60
2019-05-18T22:17:55.421Z,25.37
2019-05-18T22:20:24.830Z,23.95
2019-05-18T22:22:54.206Z,21.70
2019-05-18T22:25:23.605Z,20.88
2019-05-18T22:27:52.997Z,22.87
2019-05-18T22:30:22.371Z,24.98
2019-05-18T22:32:51.750Z,26.20
2019-05-18T22:35:21.145Z,23.20
2019-05-18T22:37:50.520Z,21.33
2019-05-18T22:40:19.897Z,22.32
2019-05-18T22:42:49.306Z,22.25
2019-05-18T22:45:18.665Z,21.95
2019-05-18T22:47:48.094Z,21.73
2019-05-18T22:50:17.526Z,20.80
2019-05-18T22:52:46.902Z,22.80
2019-05-18T22:55:16.283Z,21.40
2019-05-18T22:57:45.669Z,20.60
2019-05-18T23:00:15.138Z,25.12
2019-05-18T23:02:44.605Z,24.90
2019-05-18T23:05:13.973Z,25.00
2019-05-18T23:07:43.437Z,20.62
2019-05-18T23:10:32.221Z,30.57
2019-05-18T23:13:01.614Z,27.90
2019-05-18T23:18:00.708Z,26.60
2019-05-18T23:20:30.159Z,24.30
2019-05-18T23:22:59.528Z,21.73
2019-05-18T23:25:28.917Z,24.23
2019-05-18T23:27:58.304Z,24.18
2019-05-18T23:30:27.687Z,23.00
2019-05-18T23:32:57.062Z,26.10
2019-05-18T23:35:26.465Z,22.37
2019-05-18T23:37:55.831Z,23.12
2019-05-18T23:40:25.219Z,25.02
2019-05-18T23:42:54.615Z,24.87
2019-05-18T23:45:23.974Z,24.63
2019-05-18T23:47:53.367Z,23.32
2019-05-18T23:50:22.802Z,29.37
2019-05-18T23:52:52.224Z,25.48
2019-05-18T23:55:21.602Z,26.60
2019-05-18T23:57:50.979Z,24.23
